• Join FlightAware (Why Join?)
  • Login
  • US Flag 
03:43AM EDT


 

Airport Tracker/Info


-or-


 

Live Flight TrackerFlight Track Log ✈ EJA941 ✈ 21-Jun-2013 ✈ KMQJ - KSTL

Flight Track Log - Related Links

Times and Time Zones

All times are in EDT time to prevent confusion due to time zone crossing. See the EJA941 flight status page for this flight to view local times or setup timezone preferences in your user account.

Time Position Orientation Groundspeed Altitude Reporting Facility
EDT Latitude Longitude Course Direction KTS MPH feet Rate Location/Type
07:45PM 39.8333 -85.9167 270° West 167 192 1,400  Level Indianapolis TRACON
07:45PM 39.8333 -85.9333 270° West 174 200 2,800 2,100 Climbing Indianapolis TRACON
07:46PM 39.7833 -85.9333 180° South 192 221 4,800 2,100 Climbing Indianapolis TRACON
07:47PM 39.7333 -85.9500 194° South 195 224 6,400 2,220 Climbing Indianapolis TRACON
07:48PM 39.7164 -85.9756 229° Southwest 207 238 7,900 2,040 Climbing Indianapolis Center
07:49PM 39.6689 -86.0364 225° Southwest 232 267 9,900 2,100 Climbing Indianapolis Center
07:50PM 39.6483 -86.1167 252° West 236 272 12,300 1,500 Climbing Indianapolis Center
07:51PM 39.6364 -86.2044 260° West 243 280 13,000 300 Climbing Indianapolis Center
07:52PM 39.6194 -86.3319 260° West 293 337 13,000 540 Level Indianapolis Center
07:53PM 39.6031 -86.4489 260° West 321 369 14,200 1,260 Climbing Indianapolis Center
07:54PM 39.5933 -86.5672 264° West 327 376 15,600 1,440 Climbing Indianapolis Center
07:55PM 39.5839 -86.6989 265° West 354 407 17,200 1,500 Climbing Indianapolis Center
07:56PM 39.5739 -86.8344 265° West 373 429 18,700 1,620 Climbing Indianapolis Center
07:57PM 39.5644 -86.9717 265° West 382 440 20,600 2,220 Climbing Indianapolis Center
07:58PM 39.5531 -87.1081 264° West 381 438 23,300 2,580 Climbing Indianapolis Center
07:59PM 39.5475 -87.2403 267° West 371 427 25,900 1,260 Climbing Indianapolis Center
08:00PM 39.5919 -87.4033 290° West 402 463 26,000  Climbing Indianapolis Center
08:01PM 39.6022 -87.5528 275° West 420 483 26,000  Level Indianapolis Center
08:02PM 39.5711 -87.7028 255° West 432 497 26,000  Level Indianapolis Center
08:03PM 39.5242 -87.8469 247° West 434 499 26,000  Level Indianapolis Center
08:04PM 39.4772 -87.9928 247° West 440 506 26,000  Level Indianapolis Center
08:05PM 39.4267 -88.1506 248° West 440 506 26,000  Level Kansas City Center
08:06PM 39.3794 -88.2958 247° West 440 506 26,000  Level Kansas City Center
08:07PM 39.3356 -88.4264 247° West 426 490 26,100 -600 Climbing Kansas City Center
08:08PM 39.3264 -88.5453 264° West 386 444 24,800 -1,020 Descending Kansas City Center
08:09PM 39.3411 -88.6733 278° West 369 425 24,000 -420 Descending Kansas City Center
08:10PM 39.3086 -88.8142 253° West 366 421 24,000 -540 Level Kansas City Center
08:11PM 39.2467 -88.9150 232° Southwest 362 417 22,900 -1,020 Descending Kansas City Center
08:12PM 39.1825 -89.0183 231° Southwest 365 420 22,000 -480 Descending Kansas City Center
08:13PM 39.1100 -89.1350 231° Southwest 384 442 22,000 -120 Level Kansas City Center
08:14PM 39.0681 -89.2725 249° West 383 441 21,800 -1,080 Descending Kansas City Center
08:16PM 39.0381 -89.4053 254° West 387 445 19,800 -1,920 Descending Kansas City Center
08:17PM 39.0103 -89.5339 255° West 377 434 17,800 -1,980 Descending Kansas City Center
08:18PM 38.9739 -89.6672 251° West 371 427 15,700 -1,860 Descending Kansas City Center
08:19PM 38.9364 -89.7858 248° West 362 417 14,000 -1,560 Descending Kansas City Center
08:20PM 38.9011 -89.8961 248° West 353 406 12,500 -1,440 Descending Kansas City Center
08:21PM 38.8664 -90.0047 248° West 338 389 11,100 -1,200 Descending Kansas City Center
08:22PM 38.8358 -90.1003 248° West 301 346 10,100 -1,020 Descending Kansas City Center
08:23PM 38.8069 -90.2150 252° West 285 328 9,000 -1,200 Descending Kansas City Center
08:24PM 38.8306 -90.2933 291° West 248 285 7,700 -1,440 Descending Kansas City Center
08:26PM 38.8833 -90.4167 299° West 227 261 5,000 -1,020 Descending Gateway (St. Louis) TRACON
08:27PM 38.9167 -90.5000 297° West 225 259 5,000  Level Gateway (St. Louis) TRACON
08:28PM 38.8667 -90.5333 207° Southwest 187 215 5,000 -600 Level Gateway (St. Louis) TRACON
08:29PM 38.8333 -90.4833 131° Southeast 173 199 3,800 -1,440 Descending Gateway (St. Louis) TRACON
08:30PM 38.8000 -90.4667 159° South 124 143 2,300 -1,260 Descending Gateway (St. Louis) TRACON
08:30PM 38.7833 -90.4333 123° Southeast 117 135 1,600 -720 Descending Gateway (St. Louis) TRACON
08:31PM 38.7769 -90.4172 117° Southeast 132 152 1,300 -540 Descending Kansas City Center
08:32PM 38.7589 -90.3803 122° Southeast 126 145 800 -540 Descending Kansas City Center